Rawalakot Weather



Rawalakot's Current Weather

Temprature 22.51o broken clouds

broken clouds

Rain: 0 %

Min Temprature22.51o
Max Temprature22.51o
Humidity55
Wind Speed0.98 m/h
Sun Rise04:59:27
Sun Set19:19:19
Current Time: 05-Jul-2020 19:39:22
Lat/Lon: 33.86, 73.76




Rawalakot's Geo Location



Rawalakot's Weather Forecast

Time Overall Temp Min Temp Max Temp Humidity Wind Speed Rain
05-Jul-2020 (Sun)
20:00:00 scattered clouds 24.320 22.510 24.320 51 0.98 m/h 0 %
23:00:00 light rain 20.710 19.240 20.710 61 2.34 m/h 19 %
06-Jul-2020 (Mon)
02:00:00 light rain 18.630 18.120 18.630 69 2.24 m/h 157 %
05:00:00 clear sky 17.990 17.920 17.990 67 2.51 m/h 0 %
08:00:00 clear sky 24.990 24.990 24.990 43 1.09 m/h 0 %
11:00:00 clear sky 28.730 28.730 28.730 31 2.67 m/h 0 %
14:00:00 scattered clouds 29.310 29.310 29.310 30 2.38 m/h 0 %
17:00:00 few clouds 29.960 29.960 29.960 27 1.11 m/h 0 %
20:00:00 few clouds 23.580 23.580 23.580 41 1.31 m/h 0 %
23:00:00 clear sky 22.080 22.080 22.080 41 2.41 m/h 0 %
07-Jul-2020 (Tue)
02:00:00 few clouds 21.570 21.570 21.570 40 2.69 m/h 0 %
05:00:00 clear sky 21.130 21.130 21.130 42 2.92 m/h 0 %
08:00:00 clear sky 28.190 28.190 28.190 34 0.98 m/h 0 %
11:00:00 clear sky 31.310 31.310 31.310 25 2.35 m/h 0 %
14:00:00 scattered clouds 31.910 31.910 31.910 24 2.78 m/h 0 %
17:00:00 scattered clouds 31.720 31.720 31.720 24 0.98 m/h 0 %
20:00:00 scattered clouds 25.860 25.860 25.860 35 1.74 m/h 0 %
23:00:00 scattered clouds 24.100 24.100 24.100 39 2.41 m/h 0 %
08-Jul-2020 (Wed)
02:00:00 scattered clouds 24.060 24.060 24.060 37 2.6 m/h 0 %
05:00:00 scattered clouds 23.040 23.040 23.040 39 1.73 m/h 0 %
08:00:00 clear sky 27.810 27.810 27.810 40 0.9 m/h 0 %
11:00:00 clear sky 31.230 31.230 31.230 32 3.03 m/h 0 %
14:00:00 scattered clouds 31.080 31.080 31.080 35 3.11 m/h 0 %
17:00:00 broken clouds 31.150 31.150 31.150 33 2.08 m/h 0 %
20:00:00 few clouds 25.550 25.550 25.550 49 1.85 m/h 0 %
23:00:00 clear sky 24.010 24.010 24.010 55 2.26 m/h 0 %
09-Jul-2020 (Thu)
02:00:00 light rain 22.980 22.980 22.980 55 1.77 m/h 14 %
05:00:00 scattered clouds 21.870 21.870 21.870 59 1.82 m/h 0 %
08:00:00 light rain 26.210 26.210 26.210 56 0.86 m/h 139 %
11:00:00 few clouds 29.920 29.920 29.920 42 3.09 m/h 0 %
14:00:00 light rain 29.010 29.010 29.010 45 1.54 m/h 90 %
17:00:00 moderate rain 25.420 25.420 25.420 61 3.4 m/h 320 %
20:00:00 light rain 21.740 21.740 21.740 63 3.49 m/h 116 %
23:00:00 moderate rain 19.300 19.300 19.300 81 0.82 m/h 342 %
10-Jul-2020 (Fri)
02:00:00 light rain 19.300 19.300 19.300 80 2.59 m/h 283 %
05:00:00 light rain 19.380 19.380 19.380 76 1.27 m/h 86 %
08:00:00 scattered clouds 24.720 24.720 24.720 54 0.61 m/h 0 %
11:00:00 few clouds 28.240 28.240 28.240 44 2.96 m/h 0 %
14:00:00 clear sky 30.420 30.420 30.420 38 3.37 m/h 0 %
17:00:00 light rain 29.230 29.230 29.230 43 3.44 m/h 11 %

Famous Cities (60)